ENEV/EVE METAR and TAF weather

Enter ICAO airport designator
Station Type Date Time Source
ENEV METAR 2018/01/16 08:50 UTC NOAA

ENEV 160850Z 17015G25KT 140V220 9999 SCT057 BKN098 01/M08 Q0987 RMK WIND 1400FT 14015KT


Station Type Date Time Source
ENEV Decoded METAR 2018/01/16 08:50 UTC NOAA

Evenes, Norway (ENEV) 68-31N 016-41E 26M
Jan 16, 2018 - 03:50 AM EST / 2018.01.16 0850 UTC
Wind: from the S (170 degrees) at 17 MPH (15 KT) gusting to 29 MPH (25 KT) (direction variable):0
Visibility: greater than 7 mile(s):0
Sky conditions: mostly cloudy
Temperature: 33 F (1 C)
Windchill: 23 F (-5 C):1
Dew Point: 17 F (-8 C)
Relative Humidity: 50%
Pressure (altimeter): 29.15 in. Hg (0987 hPa)
ob: ENEV 160850Z 17015G25KT 140V220 9999 SCT057 BKN098 01/M08 Q0987 RMK WIND 1400FT 14015KT
cycle: 9

Station Type Date Time Source
ENEV TAF 2010/02/05 07:50 UTC NOAA

METAR ENEV 050750Z 14007KT 9999 FEW040 SCT055 M04/M09 Q1019


Example: see airport list